Time,TemperatureF,DewpointF,PressureIn,WindDirection,WindDirectionDegrees,WindSpeedMPH,WindSpeedGustMPH,Humidity,HourlyPrecipIn,Conditions,Clouds,dailyrainin,SoftwareType,DateUTC
2013-04-22 00:01:00,39.0,39.0,-100.00,East,99,0.0,0.0,100,0.00,,,0.00,,2013-04-22 07:01:00,
2013-04-22 00:11:00,39.0,39.0,-100.00,East,99,0.0,0.0,100,0.00,,,0.00,,2013-04-22 07:11:00,
2013-04-22 00:21:00,39.0,39.0,-100.00,East,99,0.0,0.0,100,0.00,,,0.00,,2013-04-22 07:21:00,
2013-04-22 00:31:00,39.0,39.0,-100.00,East,99,0.0,0.0,100,0.00,,,0.00,,2013-04-22 07:31:00,
2013-04-22 00:42:00,39.0,39.0,-100.00,East,99,0.0,0.0,100,0.00,,,0.00,,2013-04-22 07:42:00,
2013-04-22 00:52:00,38.0,38.0,-100.00,East,99,0.0,0.0,100,0.00,,,0.00,,2013-04-22 07:52:00,
2013-04-22 01:01:00,37.0,37.0,-100.00,East,99,0.0,0.0,100,0.00,,,0.00,,2013-04-22 08:01:00,
2013-04-22 01:11:00,36.0,36.0,-100.00,East,99,0.0,0.0,100,0.00,,,0.00,,2013-04-22 08:11:00,
2013-04-22 01:21:00,36.0,36.0,-100.00,East,99,0.0,0.0,100,0.00,,,0.00,,2013-04-22 08:21:00,
2013-04-22 01:32:00,36.0,36.0,-100.00,East,99,0.0,0.0,100,0.00,,,0.00,,2013-04-22 08:32:00,
2013-04-22 01:41:00,36.0,36.0,-100.00,East,99,0.0,0.0,100,0.00,,,0.00,,2013-04-22 08:41:00,
2013-04-22 01:52:00,36.0,36.0,-100.00,East,99,0.0,0.0,100,0.00,,,0.00,,2013-04-22 08:52:00,
2013-04-22 02:01:00,35.0,35.0,-100.00,East,99,0.0,0.0,100,0.00,,,0.00,,2013-04-22 09:01:00,
2013-04-22 02:11:00,36.0,36.0,-100.00,East,99,0.0,0.0,100,0.00,,,0.00,,2013-04-22 09:11:00,
2013-04-22 02:21:00,36.0,36.0,-100.00,East,99,0.0,0.0,100,0.00,,,0.00,,2013-04-22 09:21:00,
2013-04-22 02:32:00,37.0,37.0,-100.00,East,99,0.0,0.0,100,0.00,,,0.00,,2013-04-22 09:32:00,
2013-04-22 02:42:00,37.0,37.0,-100.00,East,99,0.0,0.0,100,0.00,,,0.00,,2013-04-22 09:42:00,
2013-04-22 02:52:00,37.0,37.0,-100.00,East,99,0.0,0.0,100,0.00,,,0.00,,2013-04-22 09:52:00,
2013-04-22 03:03:00,37.0,37.0,-100.00,East,99,0.0,0.0,100,0.00,,,0.00,,2013-04-22 10:03:00,
2013-04-22 03:12:00,37.0,37.0,-100.00,East,99,0.0,0.0,100,0.00,,,0.00,,2013-04-22 10:12:00,
2013-04-22 03:22:00,37.0,37.0,-100.00,East,99,0.0,0.0,100,0.00,,,0.00,,2013-04-22 10:22:00,
2013-04-22 03:32:00,37.0,37.0,-100.00,East,99,0.0,0.0,100,0.00,,,0.00,,2013-04-22 10:32:00,
2013-04-22 03:42:00,37.0,37.0,-100.00,East,99,0.0,0.0,100,0.00,,,0.00,,2013-04-22 10:42:00,
2013-04-22 03:52:00,37.0,37.0,-100.00,East,99,0.0,0.0,100,0.00,,,0.00,,2013-04-22 10:52:00,
2013-04-22 04:02:00,37.0,37.0,-100.00,East,99,0.0,0.0,100,0.00,,,0.00,,2013-04-22 11:02:00,
2013-04-22 04:11:00,37.0,37.0,-100.00,East,99,0.0,0.0,100,0.00,,,0.00,,2013-04-22 11:11:00,
2013-04-22 04:22:00,37.0,37.0,-100.00,East,99,0.0,0.0,100,0.00,,,0.00,,2013-04-22 11:22:00,
2013-04-22 04:32:00,37.0,37.0,-100.00,East,99,0.0,0.0,100,0.00,,,0.00,,2013-04-22 11:32:00,
2013-04-22 04:42:00,37.0,37.0,-100.00,East,99,0.0,0.0,100,0.00,,,0.00,,2013-04-22 11:42:00,
2013-04-22 04:52:00,37.0,37.0,-100.00,East,99,0.0,0.0,100,0.00,,,0.00,,2013-04-22 11:52:00,
2013-04-22 05:01:00,36.0,36.0,-100.00,East,99,0.0,0.0,100,0.00,,,0.00,,2013-04-22 12:01:00,
2013-04-22 05:12:00,36.0,36.0,-100.00,East,99,0.0,0.0,100,0.00,,,0.00,,2013-04-22 12:12:00,
2013-04-22 05:21:00,36.0,36.0,-100.00,East,99,0.0,0.0,100,0.00,,,0.00,,2013-04-22 12:21:00,
2013-04-22 05:31:00,36.0,36.0,-100.00,East,99,0.0,0.0,100,0.00,,,0.00,,2013-04-22 12:31:00,
2013-04-22 05:42:00,36.0,36.0,-100.00,East,99,0.0,0.0,100,0.00,,,0.00,,2013-04-22 12:42:00,
2013-04-22 05:52:00,36.0,36.0,-100.00,East,99,0.0,0.0,100,0.00,,,0.00,,2013-04-22 12:52:00,
2013-04-22 06:01:00,36.0,36.0,-100.00,East,99,0.0,0.0,100,0.00,,,0.00,,2013-04-22 13:01:00,
2013-04-22 06:11:00,36.0,36.0,-100.00,East,99,0.0,0.0,100,0.00,,,0.00,,2013-04-22 13:11:00,
2013-04-22 06:22:00,36.0,36.0,-100.00,East,99,0.0,0.0,100,0.00,,,0.00,,2013-04-22 13:22:00,
2013-04-22 06:31:00,35.0,35.0,-100.00,East,99,0.0,0.0,100,0.00,,,0.00,,2013-04-22 13:31:00,
2013-04-22 06:41:00,35.0,35.0,-100.00,East,99,0.0,0.0,100,0.00,,,0.00,,2013-04-22 13:41:00,
2013-04-22 06:52:00,35.0,35.0,-100.00,East,99,0.0,0.0,100,0.00,,,0.00,,2013-04-22 13:52:00,
2013-04-22 07:01:00,35.0,35.0,-100.00,East,99,0.0,0.0,100,0.00,,,0.00,,2013-04-22 14:01:00,
2013-04-22 07:11:00,35.0,35.0,-100.00,East,99,0.0,0.0,100,0.00,,,0.00,,2013-04-22 14:11:00,
2013-04-22 07:21:00,35.0,35.0,-100.00,East,99,0.0,0.0,100,0.00,,,0.00,,2013-04-22 14:21:00,
2013-04-22 07:33:00,37.0,37.0,-100.00,East,99,0.0,0.0,100,0.00,,,0.00,,2013-04-22 14:33:00,
2013-04-22 07:42:00,37.0,37.0,-100.00,East,99,0.0,0.0,100,0.00,,,0.00,,2013-04-22 14:42:00,
2013-04-22 07:51:00,38.0,38.0,-100.00,East,99,0.0,0.0,100,0.00,,,0.00,,2013-04-22 14:51:00,
2013-04-22 08:01:00,42.0,42.0,-100.00,East,99,0.0,0.0,100,0.00,,,0.00,,2013-04-22 15:01:00,
2013-04-22 08:22:00,42.0,42.0,-100.00,East,99,0.0,0.0,100,0.00,,,0.00,,2013-04-22 15:22:00,
2013-04-22 08:33:00,46.0,46.0,-100.00,East,99,0.0,0.0,100,0.00,,,0.00,,2013-04-22 15:33:00,
2013-04-22 08:53:00,48.0,48.0,-100.00,East,99,0.0,0.0,100,0.00,,,0.00,,2013-04-22 15:53:00,
2013-04-22 09:02:00,51.0,51.0,-100.00,East,99,0.0,0.0,100,0.00,,,0.00,,2013-04-22 16:02:00,
2013-04-22 09:22:00,51.0,51.0,-100.00,East,99,0.0,0.0,100,0.00,,,0.00,,2013-04-22 16:22:00,
2013-04-22 09:32:00,50.0,50.0,-100.00,East,99,0.0,0.0,100,0.00,,,0.00,,2013-04-22 16:32:00,
2013-04-22 09:52:00,47.0,47.0,-100.00,East,99,0.0,0.0,100,0.00,,,0.00,,2013-04-22 16:52:00,
2013-04-22 10:01:00,54.0,54.0,-100.00,East,99,0.0,0.0,100,0.00,,,0.00,,2013-04-22 17:01:00,
2013-04-22 10:21:00,54.0,54.0,-100.00,East,99,0.0,0.0,100,0.00,,,0.00,,2013-04-22 17:21:00,
2013-04-22 10:31:00,52.0,52.0,-100.00,East,99,0.0,0.0,100,0.00,,,0.00,,2013-04-22 17:31:00,
2013-04-22 11:01:00,52.0,52.0,-100.00,East,99,0.0,0.0,100,0.00,,,0.00,,2013-04-22 18:01:00,
2013-04-22 11:21:00,55.0,55.0,-100.00,East,99,0.0,0.0,100,0.00,,,0.00,,2013-04-22 18:21:00,
2013-04-22 11:32:00,56.0,56.0,-100.00,East,99,0.0,0.0,100,0.00,,,0.00,,2013-04-22 18:32:00,
2013-04-22 11:52:00,58.0,58.0,-100.00,East,99,0.0,0.0,100,0.00,,,0.00,,2013-04-22 18:52:00,
2013-04-22 12:01:00,61.0,61.0,-100.00,East,99,0.0,0.0,100,0.00,,,0.00,,2013-04-22 19:01:00,
2013-04-22 12:21:00,57.0,57.0,-100.00,East,99,0.0,0.0,100,0.00,,,0.00,,2013-04-22 19:21:00,
2013-04-22 12:32:00,57.0,57.0,-100.00,East,99,0.0,0.0,100,0.00,,,0.00,,2013-04-22 19:32:00,
2013-04-22 12:52:00,57.0,57.0,-100.00,East,99,0.0,0.0,100,0.00,,,0.00,,2013-04-22 19:52:00,
2013-04-22 13:01:00,60.0,60.0,-100.00,East,99,0.0,0.0,100,0.00,,,0.00,,2013-04-22 20:01:00,
2013-04-22 13:31:00,58.0,58.0,-100.00,East,99,0.0,0.0,100,0.00,,,0.00,,2013-04-22 20:31:00,
2013-04-22 13:51:00,59.0,59.0,-100.00,East,99,0.0,0.0,100,0.00,,,0.00,,2013-04-22 20:51:00,
2013-04-22 14:01:00,60.0,60.0,-100.00,East,99,0.0,0.0,100,0.00,,,0.00,,2013-04-22 21:01:00,
2013-04-22 14:11:00,58.0,58.0,-100.00,East,99,0.0,0.0,100,0.00,,,0.00,,2013-04-22 21:11:00,
2013-04-22 14:21:00,58.0,58.0,-100.00,East,99,0.0,0.0,100,0.00,,,0.00,,2013-04-22 21:21:00,
2013-04-22 14:32:00,58.0,58.0,-100.00,East,99,0.0,0.0,100,0.00,,,0.00,,2013-04-22 21:32:00,
2013-04-22 15:02:00,59.0,59.0,-100.00,East,99,0.0,0.0,100,0.00,,,0.00,,2013-04-22 22:02:00,
2013-04-22 15:22:00,60.0,60.0,-100.00,East,99,0.0,0.0,100,0.00,,,0.00,,2013-04-22 22:22:00,
2013-04-22 15:32:00,59.0,59.0,-100.00,East,99,0.0,0.0,100,0.00,,,0.00,,2013-04-22 22:32:00,
2013-04-22 16:02:00,58.0,58.0,-100.00,South,180,0.0,0.0,100,0.00,,,0.00,,2013-04-22 23:02:00,
2013-04-22 16:11:00,58.0,58.0,-100.00,South,180,0.0,0.0,100,0.00,,,0.00,,2013-04-22 23:11:00,
2013-04-22 16:21:00,58.0,58.0,-100.00,South,180,0.0,0.0,100,0.00,,,0.00,,2013-04-22 23:21:00,
2013-04-22 16:32:00,58.0,58.0,-100.00,South,180,0.0,0.0,100,0.00,,,0.00,,2013-04-22 23:32:00,
2013-04-22 16:52:00,58.0,58.0,-100.00,South,180,0.0,0.0,100,0.00,,,0.00,,2013-04-22 23:52:00,
2013-04-22 17:01:00,58.0,58.0,-100.00,South,180,0.0,0.0,100,0.00,,,0.00,,2013-04-23 00:01:00,
2013-04-22 17:21:00,58.0,58.0,-100.00,South,180,0.0,0.0,100,0.00,,,0.00,,2013-04-23 00:21:00,
2013-04-22 17:31:00,58.0,58.0,-100.00,South,180,0.0,0.0,100,0.00,,,0.00,,2013-04-23 00:31:00,
2013-04-22 18:01:00,57.0,57.0,-100.00,South,180,0.0,0.0,100,0.00,,,0.00,,2013-04-23 01:01:00,
2013-04-22 18:21:00,57.0,57.0,-100.00,South,180,0.0,0.0,100,0.00,,,0.00,,2013-04-23 01:21:00,
2013-04-22 18:31:00,57.0,57.0,-100.00,South,180,0.0,0.0,100,0.00,,,0.00,,2013-04-23 01:31:00,
2013-04-22 18:52:00,57.0,57.0,-100.00,South,180,0.0,0.0,100,0.00,,,0.00,,2013-04-23 01:52:00,
2013-04-22 19:01:00,56.0,56.0,-100.00,South,180,0.0,0.0,100,0.00,,,0.00,,2013-04-23 02:01:00,
2013-04-22 19:21:00,55.0,55.0,-100.00,South,180,0.0,0.0,100,0.00,,,0.00,,2013-04-23 02:21:00,
2013-04-22 19:32:00,54.0,54.0,-100.00,South,180,0.0,0.0,100,0.00,,,0.00,,2013-04-23 02:32:00,
2013-04-22 19:52:00,54.0,54.0,-100.00,South,180,0.0,0.0,100,0.00,,,0.00,,2013-04-23 02:52:00,
2013-04-22 20:01:00,52.0,52.0,-100.00,South,180,0.0,0.0,100,0.00,,,0.00,,2013-04-23 03:01:00,
2013-04-22 20:21:00,51.0,51.0,-100.00,South,180,0.0,0.0,100,0.00,,,0.00,,2013-04-23 03:21:00,
2013-04-22 20:33:00,49.0,49.0,-100.00,South,180,0.0,0.0,100,0.00,,,0.00,,2013-04-23 03:33:00,
2013-04-22 20:52:00,48.0,48.0,-100.00,South,180,0.0,0.0,100,0.00,,,0.00,,2013-04-23 03:52:00,
2013-04-22 21:03:00,47.0,47.0,-100.00,South,180,0.0,0.0,100,0.00,,,0.00,,2013-04-23 04:03:00,
2013-04-22 21:22:00,45.0,45.0,-100.00,South,180,0.0,0.0,100,0.00,,,0.00,,2013-04-23 04:22:00,
2013-04-22 21:32:00,44.0,44.0,-100.00,South,180,0.0,0.0,100,0.00,,,0.00,,2013-04-23 04:32:00,
2013-04-22 21:52:00,43.0,43.0,-100.00,South,180,0.0,0.0,100,0.00,,,0.00,,2013-04-23 04:52:00,
2013-04-22 22:02:00,41.0,41.0,-100.00,South,180,0.0,0.0,100,0.00,,,0.00,,2013-04-23 05:02:00,
2013-04-22 22:32:00,40.0,40.0,-100.00,South,180,0.0,0.0,100,0.00,,,0.00,,2013-04-23 05:32:00,
2013-04-22 23:01:00,40.0,40.0,-100.00,South,180,0.0,0.0,100,0.00,,,0.00,,2013-04-23 06:01:00,
2013-04-22 23:21:00,39.0,39.0,-100.00,South,180,0.0,0.0,100,0.00,,,0.00,,2013-04-23 06:21:00,
2013-04-22 23:32:00,37.0,37.0,-100.00,South,180,0.0,0.0,100,0.00,,,0.00,,2013-04-23 06:32:00,
2013-04-22 23:41:00,37.0,37.0,-100.00,South,180,0.0,0.0,100,0.00,,,0.00,,2013-04-23 06:41:00,
2013-04-22 23:52:00,37.0,37.0,-100.00,South,180,0.0,0.0,100,0.00,,,0.00,,2013-04-23 06:52:00,